sensor_id;sensor_type;location;lat;lon;timestamp;P1;durP1;ratioP1;P2;durP2;ratioP2
67986;SDS011;54767;53.800;15.956;2023-02-15T00:01:28;25.80;;;16.00;;
67986;SDS011;54767;53.800;15.956;2023-02-15T00:03:57;22.50;;;14.20;;
67986;SDS011;54767;53.800;15.956;2023-02-15T00:06:25;21.10;;;12.70;;
67986;SDS011;54767;53.800;15.956;2023-02-15T00:08:54;19.00;;;11.60;;
67986;SDS011;54767;53.800;15.956;2023-02-15T00:11:23;19.30;;;12.10;;
67986;SDS011;54767;53.800;15.956;2023-02-15T00:14:14;21.00;;;12.20;;
67986;SDS011;54767;53.800;15.956;2023-02-15T00:16:43;22.60;;;12.50;;
67986;SDS011;54767;53.800;15.956;2023-02-15T00:19:13;21.00;;;12.30;;
67986;SDS011;54767;53.800;15.956;2023-02-15T00:21:43;24.00;;;12.50;;
67986;SDS011;54767;53.800;15.956;2023-02-15T00:24:13;24.90;;;14.10;;
67986;SDS011;54767;53.800;15.956;2023-02-15T00:26:43;36.80;;;17.40;;
67986;SDS011;54767;53.800;15.956;2023-02-15T00:29:12;46.50;;;19.80;;
67986;SDS011;54767;53.800;15.956;2023-02-15T00:31:43;37.10;;;18.20;;
67986;SDS011;54767;53.800;15.956;2023-02-15T00:34:18;40.50;;;18.40;;
67986;SDS011;54767;53.800;15.956;2023-02-15T00:36:49;39.90;;;18.30;;
67986;SDS011;54767;53.800;15.956;2023-02-15T00:39:18;35.10;;;17.50;;
67986;SDS011;54767;53.800;15.956;2023-02-15T00:41:46;31.70;;;16.90;;
67986;SDS011;54767;53.800;15.956;2023-02-15T00:44:15;28.70;;;16.10;;
67986;SDS011;54767;53.800;15.956;2023-02-15T00:46:43;28.90;;;16.10;;
67986;SDS011;54767;53.800;15.956;2023-02-15T00:49:12;30.10;;;16.10;;
67986;SDS011;54767;53.800;15.956;2023-02-15T00:51:40;25.90;;;15.90;;
67986;SDS011;54767;53.800;15.956;2023-02-15T00:54:08;27.40;;;15.70;;
67986;SDS011;54767;53.800;15.956;2023-02-15T00:56:37;27.10;;;15.60;;
67986;SDS011;54767;53.800;15.956;2023-02-15T00:59:05;25.40;;;15.10;;
67986;SDS011;54767;53.800;15.956;2023-02-15T01:01:34;26.90;;;16.50;;
67986;SDS011;54767;53.800;15.956;2023-02-15T01:04:02;30.20;;;16.10;;
67986;SDS011;54767;53.800;15.956;2023-02-15T01:06:30;27.20;;;15.80;;
67986;SDS011;54767;53.800;15.956;2023-02-15T01:08:59;26.90;;;16.60;;
67986;SDS011;54767;53.800;15.956;2023-02-15T01:11:27;28.30;;;16.10;;
67986;SDS011;54767;53.800;15.956;2023-02-15T01:13:56;27.40;;;15.80;;
67986;SDS011;54767;53.800;15.956;2023-02-15T01:18:55;24.60;;;14.50;;
67986;SDS011;54767;53.800;15.956;2023-02-15T01:21:25;25.20;;;14.50;;
67986;SDS011;54767;53.800;15.956;2023-02-15T01:23:54;26.30;;;14.30;;
67986;SDS011;54767;53.800;15.956;2023-02-15T01:26:22;26.50;;;14.80;;
67986;SDS011;54767;53.800;15.956;2023-02-15T01:28:50;28.50;;;15.60;;
67986;SDS011;54767;53.800;15.956;2023-02-15T01:31:19;24.90;;;15.20;;
67986;SDS011;54767;53.800;15.956;2023-02-15T01:33:49;25.90;;;14.90;;
67986;SDS011;54767;53.800;15.956;2023-02-15T01:36:17;22.90;;;13.70;;
67986;SDS011;54767;53.800;15.956;2023-02-15T01:38:46;26.40;;;14.60;;
67986;SDS011;54767;53.800;15.956;2023-02-15T01:41:14;22.80;;;13.90;;
67986;SDS011;54767;53.800;15.956;2023-02-15T01:43:55;26.70;;;14.80;;
67986;SDS011;54767;53.800;15.956;2023-02-15T01:46:36;29.10;;;15.30;;
67986;SDS011;54767;53.800;15.956;2023-02-15T01:49:14;25.20;;;15.20;;
67986;SDS011;54767;53.800;15.956;2023-02-15T01:51:45;27.30;;;15.10;;
67986;SDS011;54767;53.800;15.956;2023-02-15T01:54:18;27.40;;;15.00;;
67986;SDS011;54767;53.800;15.956;2023-02-15T01:56:48;27.00;;;15.50;;
67986;SDS011;54767;53.800;15.956;2023-02-15T01:59:17;23.30;;;14.60;;
67986;SDS011;54767;53.800;15.956;2023-02-15T02:01:49;25.00;;;14.00;;
67986;SDS011;54767;53.800;15.956;2023-02-15T02:04:25;25.20;;;13.90;;
67986;SDS011;54767;53.800;15.956;2023-02-15T02:07:01;24.10;;;14.70;;
67986;SDS011;54767;53.800;15.956;2023-02-15T02:09:31;24.90;;;13.80;;
67986;SDS011;54767;53.800;15.956;2023-02-15T02:12:00;23.30;;;13.70;;
67986;SDS011;54767;53.800;15.956;2023-02-15T02:14:29;24.00;;;14.50;;
67986;SDS011;54767;53.800;15.956;2023-02-15T02:17:02;26.90;;;14.20;;
67986;SDS011;54767;53.800;15.956;2023-02-15T02:27:29;24.30;;;14.60;;
67986;SDS011;54767;53.800;15.956;2023-02-15T02:35:54;21.90;;;12.40;;
67986;SDS011;54767;53.800;15.956;2023-02-15T02:41:32;23.80;;;13.20;;
67986;SDS011;54767;53.800;15.956;2023-02-15T02:44:07;25.10;;;13.70;;
67986;SDS011;54767;53.800;15.956;2023-02-15T02:47:22;25.80;;;14.80;;
67986;SDS011;54767;53.800;15.956;2023-02-15T02:49:41;22.20;;;13.60;;
67986;SDS011;54767;53.800;15.956;2023-02-15T03:01:06;24.20;;;13.70;;
67986;SDS011;54767;53.800;15.956;2023-02-15T03:03:45;25.00;;;14.20;;
67986;SDS011;54767;53.800;15.956;2023-02-15T03:06:22;22.10;;;13.20;;
67986;SDS011;54767;53.800;15.956;2023-02-15T03:09:00;23.50;;;13.60;;
67986;SDS011;54767;53.800;15.956;2023-02-15T03:11:33;23.10;;;13.80;;
67986;SDS011;54767;53.800;15.956;2023-02-15T03:14:01;24.40;;;13.50;;
67986;SDS011;54767;53.800;15.956;2023-02-15T03:16:30;23.20;;;13.80;;
67986;SDS011;54767;53.800;15.956;2023-02-15T03:19:04;25.10;;;15.10;;
67986;SDS011;54767;53.800;15.956;2023-02-15T03:24:31;24.70;;;13.90;;
67986;SDS011;54767;53.800;15.956;2023-02-15T03:27:04;23.90;;;14.10;;
67986;SDS011;54767;53.800;15.956;2023-02-15T03:29:39;26.10;;;14.40;;
67986;SDS011;54767;53.800;15.956;2023-02-15T03:32:08;25.60;;;14.30;;
67986;SDS011;54767;53.800;15.956;2023-02-15T03:34:39;25.80;;;15.00;;
67986;SDS011;54767;53.800;15.956;2023-02-15T03:37:13;26.90;;;14.40;;
67986;SDS011;54767;53.800;15.956;2023-02-15T03:43:07;23.10;;;13.70;;
67986;SDS011;54767;53.800;15.956;2023-02-15T03:46:06;22.60;;;13.60;;
67986;SDS011;54767;53.800;15.956;2023-02-15T03:48:45;23.20;;;13.70;;
67986;SDS011;54767;53.800;15.956;2023-02-15T03:51:21;23.80;;;13.10;;
67986;SDS011;54767;53.800;15.956;2023-02-15T03:57:18;22.90;;;13.10;;
67986;SDS011;54767;53.800;15.956;2023-02-15T04:00:24;24.30;;;13.20;;
67986;SDS011;54767;53.800;15.956;2023-02-15T04:03:15;23.50;;;12.80;;
67986;SDS011;54767;53.800;15.956;2023-02-15T04:05:48;22.80;;;13.30;;
67986;SDS011;54767;53.800;15.956;2023-02-15T04:08:16;24.00;;;12.60;;
67986;SDS011;54767;53.800;15.956;2023-02-15T04:10:45;25.70;;;13.40;;
67986;SDS011;54767;53.800;15.956;2023-02-15T04:13:29;24.00;;;13.80;;
67986;SDS011;54767;53.800;15.956;2023-02-15T04:15:59;24.70;;;14.30;;
67986;SDS011;54767;53.800;15.956;2023-02-15T04:18:38;23.10;;;13.10;;
67986;SDS011;54767;53.800;15.956;2023-02-15T04:21:28;24.00;;;13.70;;
67986;SDS011;54767;53.800;15.956;2023-02-15T04:24:16;25.30;;;13.20;;
67986;SDS011;54767;53.800;15.956;2023-02-15T04:27:04;25.50;;;13.80;;
67986;SDS011;54767;53.800;15.956;2023-02-15T04:29:33;25.10;;;13.50;;
67986;SDS011;54767;53.800;15.956;2023-02-15T04:32:02;26.20;;;13.90;;
67986;SDS011;54767;53.800;15.956;2023-02-15T04:34:30;25.90;;;14.70;;
67986;SDS011;54767;53.800;15.956;2023-02-15T04:36:58;27.80;;;14.50;;
67986;SDS011;54767;53.800;15.956;2023-02-15T04:39:27;25.30;;;14.10;;
67986;SDS011;54767;53.800;15.956;2023-02-15T04:41:55;27.30;;;14.20;;
67986;SDS011;54767;53.800;15.956;2023-02-15T04:44:23;26.00;;;13.90;;
67986;SDS011;54767;53.800;15.956;2023-02-15T04:46:51;25.30;;;14.00;;
67986;SDS011;54767;53.800;15.956;2023-02-15T04:49:20;25.50;;;14.50;;
67986;SDS011;54767;53.800;15.956;2023-02-15T04:51:48;26.10;;;14.10;;
67986;SDS011;54767;53.800;15.956;2023-02-15T04:54:16;26.80;;;14.20;;
67986;SDS011;54767;53.800;15.956;2023-02-15T04:56:44;29.20;;;15.70;;
67986;SDS011;54767;53.800;15.956;2023-02-15T04:59:13;26.00;;;15.20;;
67986;SDS011;54767;53.800;15.956;2023-02-15T05:01:41;29.00;;;15.20;;
67986;SDS011;54767;53.800;15.956;2023-02-15T05:04:10;26.40;;;14.00;;
67986;SDS011;54767;53.800;15.956;2023-02-15T05:06:38;24.60;;;15.00;;
67986;SDS011;54767;53.800;15.956;2023-02-15T05:09:06;28.80;;;16.00;;
67986;SDS011;54767;53.800;15.956;2023-02-15T05:11:35;26.20;;;15.90;;
67986;SDS011;54767;53.800;15.956;2023-02-15T05:14:03;28.70;;;16.60;;
67986;SDS011;54767;53.800;15.956;2023-02-15T05:16:32;25.80;;;14.40;;
67986;SDS011;54767;53.800;15.956;2023-02-15T05:19:01;29.40;;;16.20;;
67986;SDS011;54767;53.800;15.956;2023-02-15T05:21:29;27.60;;;15.00;;
67986;SDS011;54767;53.800;15.956;2023-02-15T05:23:58;27.40;;;15.50;;
67986;SDS011;54767;53.800;15.956;2023-02-15T05:26:26;27.70;;;15.70;;
67986;SDS011;54767;53.800;15.956;2023-02-15T05:29:13;29.70;;;16.60;;
67986;SDS011;54767;53.800;15.956;2023-02-15T05:31:41;33.40;;;17.70;;
67986;SDS011;54767;53.800;15.956;2023-02-15T05:34:12;34.60;;;19.40;;
67986;SDS011;54767;53.800;15.956;2023-02-15T05:36:40;40.80;;;20.20;;
67986;SDS011;54767;53.800;15.956;2023-02-15T05:39:08;36.30;;;19.20;;
67986;SDS011;54767;53.800;15.956;2023-02-15T05:41:37;36.10;;;18.80;;
67986;SDS011;54767;53.800;15.956;2023-02-15T05:44:05;38.80;;;20.80;;
67986;SDS011;54767;53.800;15.956;2023-02-15T05:46:33;40.30;;;23.90;;
67986;SDS011;54767;53.800;15.956;2023-02-15T05:49:02;49.60;;;27.70;;
67986;SDS011;54767;53.800;15.956;2023-02-15T05:51:30;49.60;;;28.40;;
67986;SDS011;54767;53.800;15.956;2023-02-15T05:53:58;45.10;;;26.30;;
67986;SDS011;54767;53.800;15.956;2023-02-15T05:56:26;37.10;;;20.90;;
67986;SDS011;54767;53.800;15.956;2023-02-15T05:58:55;31.80;;;19.50;;
67986;SDS011;54767;53.800;15.956;2023-02-15T06:01:23;37.10;;;19.50;;
67986;SDS011;54767;53.800;15.956;2023-02-15T06:03:51;32.00;;;18.20;;
67986;SDS011;54767;53.800;15.956;2023-02-15T06:06:20;29.50;;;17.30;;
67986;SDS011;54767;53.800;15.956;2023-02-15T06:08:48;32.50;;;18.10;;
67986;SDS011;54767;53.800;15.956;2023-02-15T06:11:16;30.30;;;17.80;;
67986;SDS011;54767;53.800;15.956;2023-02-15T06:13:45;31.20;;;18.10;;
67986;SDS011;54767;53.800;15.956;2023-02-15T06:16:14;28.20;;;17.40;;
67986;SDS011;54767;53.800;15.956;2023-02-15T06:18:43;25.70;;;16.00;;
67986;SDS011;54767;53.800;15.956;2023-02-15T06:21:12;28.90;;;16.60;;
67986;SDS011;54767;53.800;15.956;2023-02-15T06:23:40;25.60;;;15.40;;
67986;SDS011;54767;53.800;15.956;2023-02-15T06:26:09;28.10;;;16.20;;
67986;SDS011;54767;53.800;15.956;2023-02-15T06:28:37;29.10;;;15.40;;
67986;SDS011;54767;53.800;15.956;2023-02-15T06:31:06;26.20;;;15.50;;
67986;SDS011;54767;53.800;15.956;2023-02-15T06:33:34;28.20;;;15.30;;
67986;SDS011;54767;53.800;15.956;2023-02-15T06:36:03;26.80;;;16.20;;
67986;SDS011;54767;53.800;15.956;2023-02-15T06:38:31;28.60;;;16.90;;
67986;SDS011;54767;53.800;15.956;2023-02-15T06:41:00;37.60;;;20.30;;
67986;SDS011;54767;53.800;15.956;2023-02-15T06:43:28;39.10;;;22.10;;
67986;SDS011;54767;53.800;15.956;2023-02-15T06:45:56;44.30;;;24.90;;
67986;SDS011;54767;53.800;15.956;2023-02-15T06:48:26;51.90;;;26.70;;
67986;SDS011;54767;53.800;15.956;2023-02-15T06:50:54;49.30;;;28.50;;
67986;SDS011;54767;53.800;15.956;2023-02-15T06:53:22;48.20;;;27.10;;
67986;SDS011;54767;53.800;15.956;2023-02-15T06:55:51;44.40;;;26.30;;
67986;SDS011;54767;53.800;15.956;2023-02-15T06:58:19;44.80;;;27.50;;
67986;SDS011;54767;53.800;15.956;2023-02-15T07:00:47;46.30;;;25.70;;
67986;SDS011;54767;53.800;15.956;2023-02-15T07:03:17;41.80;;;25.80;;
67986;SDS011;54767;53.800;15.956;2023-02-15T07:05:45;40.80;;;24.10;;
67986;SDS011;54767;53.800;15.956;2023-02-15T07:08:15;43.90;;;25.30;;
67986;SDS011;54767;53.800;15.956;2023-02-15T07:10:43;43.50;;;24.00;;
67986;SDS011;54767;53.800;15.956;2023-02-15T07:13:12;39.50;;;22.90;;
67986;SDS011;54767;53.800;15.956;2023-02-15T07:15:40;38.30;;;22.80;;
67986;SDS011;54767;53.800;15.956;2023-02-15T07:18:08;39.20;;;22.00;;
67986;SDS011;54767;53.800;15.956;2023-02-15T07:20:38;37.80;;;20.90;;
67986;SDS011;54767;53.800;15.956;2023-02-15T07:23:09;38.60;;;21.30;;
67986;SDS011;54767;53.800;15.956;2023-02-15T07:25:37;36.60;;;19.70;;
67986;SDS011;54767;53.800;15.956;2023-02-15T07:28:05;38.20;;;20.90;;
67986;SDS011;54767;53.800;15.956;2023-02-15T07:30:34;36.00;;;19.80;;
67986;SDS011;54767;53.800;15.956;2023-02-15T07:33:05;32.50;;;19.30;;
67986;SDS011;54767;53.800;15.956;2023-02-15T07:35:55;34.20;;;18.60;;
67986;SDS011;54767;53.800;15.956;2023-02-15T07:38:26;32.30;;;17.90;;
67986;SDS011;54767;53.800;15.956;2023-02-15T07:40:59;33.80;;;17.60;;
67986;SDS011;54767;53.800;15.956;2023-02-15T07:43:28;33.90;;;17.30;;
67986;SDS011;54767;53.800;15.956;2023-02-15T07:46:02;35.50;;;18.30;;
67986;SDS011;54767;53.800;15.956;2023-02-15T07:48:32;35.90;;;19.50;;
67986;SDS011;54767;53.800;15.956;2023-02-15T07:51:02;33.40;;;18.30;;
67986;SDS011;54767;53.800;15.956;2023-02-15T07:53:33;34.50;;;17.90;;
67986;SDS011;54767;53.800;15.956;2023-02-15T07:56:02;30.30;;;16.40;;
67986;SDS011;54767;53.800;15.956;2023-02-15T07:58:34;33.00;;;17.10;;
67986;SDS011;54767;53.800;15.956;2023-02-15T08:01:26;30.60;;;16.10;;
67986;SDS011;54767;53.800;15.956;2023-02-15T08:03:57;33.20;;;17.00;;
67986;SDS011;54767;53.800;15.956;2023-02-15T08:06:27;30.30;;;15.70;;
67986;SDS011;54767;53.800;15.956;2023-02-15T08:08:57;28.70;;;16.00;;
67986;SDS011;54767;53.800;15.956;2023-02-15T08:11:26;30.60;;;16.00;;
67986;SDS011;54767;53.800;15.956;2023-02-15T08:16:31;39.20;;;22.00;;
67986;SDS011;54767;53.800;15.956;2023-02-15T08:19:03;79.30;;;56.90;;
67986;SDS011;54767;53.800;15.956;2023-02-15T08:21:34;69.40;;;47.40;;
67986;SDS011;54767;53.800;15.956;2023-02-15T08:24:05;46.50;;;32.90;;
67986;SDS011;54767;53.800;15.956;2023-02-15T08:29:04;28.40;;;17.80;;
67986;SDS011;54767;53.800;15.956;2023-02-15T08:31:34;27.20;;;15.70;;
67986;SDS011;54767;53.800;15.956;2023-02-15T08:34:05;28.60;;;15.20;;
67986;SDS011;54767;53.800;15.956;2023-02-15T08:36:33;27.80;;;14.60;;
67986;SDS011;54767;53.800;15.956;2023-02-15T08:39:03;26.70;;;14.60;;
67986;SDS011;54767;53.800;15.956;2023-02-15T08:44:03;40.60;;;21.90;;
67986;SDS011;54767;53.800;15.956;2023-02-15T08:46:36;31.50;;;17.10;;
67986;SDS011;54767;53.800;15.956;2023-02-15T08:49:06;35.40;;;19.30;;
67986;SDS011;54767;53.800;15.956;2023-02-15T08:51:35;40.50;;;20.60;;
67986;SDS011;54767;53.800;15.956;2023-02-15T08:54:08;32.50;;;17.30;;
67986;SDS011;54767;53.800;15.956;2023-02-15T08:56:39;32.00;;;19.20;;
67986;SDS011;54767;53.800;15.956;2023-02-15T08:59:14;35.10;;;17.80;;
67986;SDS011;54767;53.800;15.956;2023-02-15T09:01:44;29.80;;;16.30;;
67986;SDS011;54767;53.800;15.956;2023-02-15T09:04:13;31.40;;;16.10;;
67986;SDS011;54767;53.800;15.956;2023-02-15T09:06:44;31.80;;;16.30;;
67986;SDS011;54767;53.800;15.956;2023-02-15T09:09:16;32.60;;;17.20;;
67986;SDS011;54767;53.800;15.956;2023-02-15T09:11:46;30.40;;;16.60;;
67986;SDS011;54767;53.800;15.956;2023-02-15T09:14:20;28.20;;;15.50;;
67986;SDS011;54767;53.800;15.956;2023-02-15T09:16:49;30.20;;;16.40;;
67986;SDS011;54767;53.800;15.956;2023-02-15T09:19:20;30.10;;;16.20;;
67986;SDS011;54767;53.800;15.956;2023-02-15T09:24:18;29.20;;;14.70;;
67986;SDS011;54767;53.800;15.956;2023-02-15T09:26:47;26.70;;;14.90;;
67986;SDS011;54767;53.800;15.956;2023-02-15T09:31:46;30.60;;;17.50;;
67986;SDS011;54767;53.800;15.956;2023-02-15T09:34:18;29.10;;;18.50;;
67986;SDS011;54767;53.800;15.956;2023-02-15T09:36:49;29.50;;;17.70;;
67986;SDS011;54767;53.800;15.956;2023-02-15T09:45:30;32.70;;;16.30;;
67986;SDS011;54767;53.800;15.956;2023-02-15T10:06:35;28.50;;;16.50;;
67986;SDS011;54767;53.800;15.956;2023-02-15T10:17:50;39.50;;;22.80;;
67986;SDS011;54767;53.800;15.956;2023-02-15T10:26:15;56.20;;;36.30;;
67986;SDS011;54767;53.800;15.956;2023-02-15T10:28:50;45.30;;;30.10;;
67986;SDS011;54767;53.800;15.956;2023-02-15T10:31:31;38.20;;;26.20;;
67986;SDS011;54767;53.800;15.956;2023-02-15T10:47:56;33.20;;;18.30;;
67986;SDS011;54767;53.800;15.956;2023-02-15T10:50:49;33.00;;;17.30;;
67986;SDS011;54767;53.800;15.956;2023-02-15T11:06:59;34.60;;;16.80;;
67986;SDS011;54767;53.800;15.956;2023-02-15T11:09:37;41.90;;;18.60;;
67986;SDS011;54767;53.800;15.956;2023-02-15T11:12:11;33.80;;;18.30;;
67986;SDS011;54767;53.800;15.956;2023-02-15T11:15:04;32.90;;;18.00;;
67986;SDS011;54767;53.800;15.956;2023-02-15T11:17:41;33.10;;;17.20;;
67986;SDS011;54767;53.800;15.956;2023-02-15T11:20:24;31.00;;;17.70;;
67986;SDS011;54767;53.800;15.956;2023-02-15T11:22:57;32.20;;;17.60;;
67986;SDS011;54767;53.800;15.956;2023-02-15T11:25:30;33.30;;;17.70;;
67986;SDS011;54767;53.800;15.956;2023-02-15T11:28:03;30.90;;;16.80;;
67986;SDS011;54767;53.800;15.956;2023-02-15T11:30:43;30.50;;;17.40;;
67986;SDS011;54767;53.800;15.956;2023-02-15T11:35:59;31.30;;;17.30;;
67986;SDS011;54767;53.800;15.956;2023-02-15T11:38:32;33.80;;;17.20;;
67986;SDS011;54767;53.800;15.956;2023-02-15T11:41:03;32.00;;;17.80;;
67986;SDS011;54767;53.800;15.956;2023-02-15T11:43:46;32.90;;;17.30;;
67986;SDS011;54767;53.800;15.956;2023-02-15T11:46:16;34.20;;;19.10;;
67986;SDS011;54767;53.800;15.956;2023-02-15T11:48:46;33.20;;;18.20;;
67986;SDS011;54767;53.800;15.956;2023-02-15T11:51:16;34.80;;;18.30;;
67986;SDS011;54767;53.800;15.956;2023-02-15T11:53:50;42.90;;;21.30;;
67986;SDS011;54767;53.800;15.956;2023-02-15T11:59:06;36.40;;;18.90;;
67986;SDS011;54767;53.800;15.956;2023-02-15T12:01:42;41.90;;;22.10;;
67986;SDS011;54767;53.800;15.956;2023-02-15T12:07:13;32.70;;;18.40;;
67986;SDS011;54767;53.800;15.956;2023-02-15T12:12:35;30.00;;;17.30;;
67986;SDS011;54767;53.800;15.956;2023-02-15T12:15:06;35.60;;;19.80;;
67986;SDS011;54767;53.800;15.956;2023-02-15T12:17:39;34.10;;;19.50;;
67986;SDS011;54767;53.800;15.956;2023-02-15T12:22:45;33.50;;;18.00;;
67986;SDS011;54767;53.800;15.956;2023-02-15T12:25:22;35.30;;;20.00;;
67986;SDS011;54767;53.800;15.956;2023-02-15T12:27:51;44.20;;;23.80;;
67986;SDS011;54767;53.800;15.956;2023-02-15T12:30:22;39.20;;;21.80;;
67986;SDS011;54767;53.800;15.956;2023-02-15T12:36:12;34.50;;;20.10;;
67986;SDS011;54767;53.800;15.956;2023-02-15T12:39:33;37.20;;;19.80;;
67986;SDS011;54767;53.800;15.956;2023-02-15T12:41:36;32.90;;;20.10;;
67986;SDS011;54767;53.800;15.956;2023-02-15T12:44:18;35.70;;;20.90;;
67986;SDS011;54767;53.800;15.956;2023-02-15T12:47:01;32.70;;;18.20;;
67986;SDS011;54767;53.800;15.956;2023-02-15T12:49:37;33.10;;;17.90;;
67986;SDS011;54767;53.800;15.956;2023-02-15T12:52:23;34.40;;;19.40;;
67986;SDS011;54767;53.800;15.956;2023-02-15T12:54:52;36.30;;;18.60;;
67986;SDS011;54767;53.800;15.956;2023-02-15T12:57:25;32.40;;;17.70;;
67986;SDS011;54767;53.800;15.956;2023-02-15T12:59:59;37.50;;;19.60;;
67986;SDS011;54767;53.800;15.956;2023-02-15T13:11:10;34.60;;;19.00;;
67986;SDS011;54767;53.800;15.956;2023-02-15T13:16:55;37.10;;;23.90;;
67986;SDS011;54767;53.800;15.956;2023-02-15T13:19:37;32.40;;;18.10;;
67986;SDS011;54767;53.800;15.956;2023-02-15T13:22:13;34.50;;;21.00;;
67986;SDS011;54767;53.800;15.956;2023-02-15T13:25:19;33.10;;;17.80;;
67986;SDS011;54767;53.800;15.956;2023-02-15T13:28:03;34.50;;;18.00;;
67986;SDS011;54767;53.800;15.956;2023-02-15T13:30:37;34.90;;;20.00;;
67986;SDS011;54767;53.800;15.956;2023-02-15T13:36:08;31.30;;;18.10;;
67986;SDS011;54767;53.800;15.956;2023-02-15T13:38:55;30.70;;;17.90;;
67986;SDS011;54767;53.800;15.956;2023-02-15T13:52:41;35.40;;;18.70;;
67986;SDS011;54767;53.800;15.956;2023-02-15T13:55:55;33.20;;;17.50;;
67986;SDS011;54767;53.800;15.956;2023-02-15T14:26:02;31.80;;;20.20;;
67986;SDS011;54767;53.800;15.956;2023-02-15T14:31:27;30.20;;;18.10;;
67986;SDS011;54767;53.800;15.956;2023-02-15T14:34:01;31.60;;;18.40;;
67986;SDS011;54767;53.800;15.956;2023-02-15T14:36:32;29.10;;;17.70;;
67986;SDS011;54767;53.800;15.956;2023-02-15T14:45:17;31.20;;;16.90;;
67986;SDS011;54767;53.800;15.956;2023-02-15T14:50:45;32.50;;;18.60;;
67986;SDS011;54767;53.800;15.956;2023-02-15T14:53:32;32.00;;;18.00;;
67986;SDS011;54767;53.800;15.956;2023-02-15T15:01:30;43.30;;;28.80;;
67986;SDS011;54767;53.800;15.956;2023-02-15T15:04:05;43.80;;;31.90;;
67986;SDS011;54767;53.800;15.956;2023-02-15T15:06:37;41.20;;;28.80;;
67986;SDS011;54767;53.800;15.956;2023-02-15T15:09:27;83.70;;;26.70;;
67986;SDS011;54767;53.800;15.956;2023-02-15T15:12:13;34.60;;;19.70;;
67986;SDS011;54767;53.800;15.956;2023-02-15T15:14:49;33.70;;;19.10;;
67986;SDS011;54767;53.800;15.956;2023-02-15T15:22:41;32.80;;;17.90;;
67986;SDS011;54767;53.800;15.956;2023-02-15T15:28:05;34.90;;;19.20;;
67986;SDS011;54767;53.800;15.956;2023-02-15T15:49:27;34.10;;;19.40;;
67986;SDS011;54767;53.800;15.956;2023-02-15T15:52:03;34.80;;;18.50;;
67986;SDS011;54767;53.800;15.956;2023-02-15T15:54:49;33.60;;;18.70;;
67986;SDS011;54767;53.800;15.956;2023-02-15T15:57:34;36.90;;;19.40;;
67986;SDS011;54767;53.800;15.956;2023-02-15T16:00:22;33.50;;;18.50;;
67986;SDS011;54767;53.800;15.956;2023-02-15T16:02:53;31.10;;;18.20;;
67986;SDS011;54767;53.800;15.956;2023-02-15T16:05:23;35.90;;;19.50;;
67986;SDS011;54767;53.800;15.956;2023-02-15T16:07:51;35.20;;;20.40;;
67986;SDS011;54767;53.800;15.956;2023-02-15T16:10:21;38.00;;;22.60;;
67986;SDS011;54767;53.800;15.956;2023-02-15T16:12:52;48.60;;;29.30;;
67986;SDS011;54767;53.800;15.956;2023-02-15T16:15:28;65.20;;;38.60;;
67986;SDS011;54767;53.800;15.956;2023-02-15T16:18:03;71.10;;;44.10;;
67986;SDS011;54767;53.800;15.956;2023-02-15T16:20:35;73.00;;;43.90;;
67986;SDS011;54767;53.800;15.956;2023-02-15T16:28:53;71.20;;;39.00;;
67986;SDS011;54767;53.800;15.956;2023-02-15T16:31:22;58.90;;;34.60;;
67986;SDS011;54767;53.800;15.956;2023-02-15T16:33:52;62.00;;;36.40;;
67986;SDS011;54767;53.800;15.956;2023-02-15T16:36:23;61.50;;;35.30;;
67986;SDS011;54767;53.800;15.956;2023-02-15T16:41:25;76.20;;;39.90;;
67986;SDS011;54767;53.800;15.956;2023-02-15T16:43:56;70.60;;;38.50;;
67986;SDS011;54767;53.800;15.956;2023-02-15T16:49:00;83.90;;;41.90;;
67986;SDS011;54767;53.800;15.956;2023-02-15T16:51:33;114.90;;;49.50;;
67986;SDS011;54767;53.800;15.956;2023-02-15T16:54:05;113.10;;;49.70;;
67986;SDS011;54767;53.800;15.956;2023-02-15T16:56:35;101.40;;;45.60;;
67986;SDS011;54767;53.800;15.956;2023-02-15T16:59:04;79.90;;;41.60;;
67986;SDS011;54767;53.800;15.956;2023-02-15T17:01:32;87.10;;;45.60;;
67986;SDS011;54767;53.800;15.956;2023-02-15T17:06:42;82.70;;;45.00;;
67986;SDS011;54767;53.800;15.956;2023-02-15T17:09:26;73.20;;;40.20;;
67986;SDS011;54767;53.800;15.956;2023-02-15T17:11:55;68.30;;;36.10;;
67986;SDS011;54767;53.800;15.956;2023-02-15T17:14:27;62.50;;;33.30;;
67986;SDS011;54767;53.800;15.956;2023-02-15T17:17:00;60.80;;;34.50;;
67986;SDS011;54767;53.800;15.956;2023-02-15T17:19:40;66.00;;;35.60;;
67986;SDS011;54767;53.800;15.956;2023-02-15T17:22:17;61.60;;;36.20;;
67986;SDS011;54767;53.800;15.956;2023-02-15T17:24:57;75.80;;;39.60;;
67986;SDS011;54767;53.800;15.956;2023-02-15T17:27:28;80.60;;;41.70;;
67986;SDS011;54767;53.800;15.956;2023-02-15T17:30:04;76.20;;;40.10;;
67986;SDS011;54767;53.800;15.956;2023-02-15T17:33:17;78.20;;;44.40;;
67986;SDS011;54767;53.800;15.956;2023-02-15T17:36:08;67.10;;;39.40;;
67986;SDS011;54767;53.800;15.956;2023-02-15T17:38:40;64.90;;;37.50;;
67986;SDS011;54767;53.800;15.956;2023-02-15T17:41:28;67.90;;;41.50;;
67986;SDS011;54767;53.800;15.956;2023-02-15T17:44:09;63.50;;;40.80;;
67986;SDS011;54767;53.800;15.956;2023-02-15T17:46:41;67.60;;;40.00;;
67986;SDS011;54767;53.800;15.956;2023-02-15T17:49:22;65.90;;;40.10;;
67986;SDS011;54767;53.800;15.956;2023-02-15T17:51:54;70.50;;;40.90;;
67986;SDS011;54767;53.800;15.956;2023-02-15T17:54:23;78.80;;;44.40;;
67986;SDS011;54767;53.800;15.956;2023-02-15T17:57:14;73.20;;;42.80;;
67986;SDS011;54767;53.800;15.956;2023-02-15T17:59:44;67.20;;;41.10;;
67986;SDS011;54767;53.800;15.956;2023-02-15T18:02:31;61.90;;;37.10;;
67986;SDS011;54767;53.800;15.956;2023-02-15T18:05:22;53.50;;;30.00;;
67986;SDS011;54767;53.800;15.956;2023-02-15T18:08:15;48.30;;;27.30;;
67986;SDS011;54767;53.800;15.956;2023-02-15T18:11:07;42.90;;;25.80;;
67986;SDS011;54767;53.800;15.956;2023-02-15T18:13:56;52.30;;;29.20;;
67986;SDS011;54767;53.800;15.956;2023-02-15T18:16:38;54.00;;;31.30;;
67986;SDS011;54767;53.800;15.956;2023-02-15T18:19:14;56.80;;;32.50;;
67986;SDS011;54767;53.800;15.956;2023-02-15T18:21:44;50.60;;;28.50;;
67986;SDS011;54767;53.800;15.956;2023-02-15T18:24:21;48.20;;;27.10;;
67986;SDS011;54767;53.800;15.956;2023-02-15T18:26:52;38.20;;;24.10;;
67986;SDS011;54767;53.800;15.956;2023-02-15T18:29:21;37.30;;;22.20;;
67986;SDS011;54767;53.800;15.956;2023-02-15T18:31:53;40.40;;;22.80;;
67986;SDS011;54767;53.800;15.956;2023-02-15T18:34:28;40.70;;;22.40;;
67986;SDS011;54767;53.800;15.956;2023-02-15T18:37:00;44.00;;;24.10;;
67986;SDS011;54767;53.800;15.956;2023-02-15T18:42:01;41.10;;;21.70;;
67986;SDS011;54767;53.800;15.956;2023-02-15T18:44:31;41.60;;;21.70;;
67986;SDS011;54767;53.800;15.956;2023-02-15T18:47:00;42.30;;;22.20;;
67986;SDS011;54767;53.800;15.956;2023-02-15T18:49:28;51.10;;;23.00;;
67986;SDS011;54767;53.800;15.956;2023-02-15T18:51:56;49.10;;;22.90;;